Terminal Aerodrome Forecast
Issued by NWS

Home | Current Version | Previous Version | Text Only | Print | Product List | Glossary On
Versions: 1 2 3 4 5 6 7 8 9 10 11 12 13 14 15 16
000
FTUS45 KTFX 221700
TAFHLN
TAF
KHLN 221739Z 2218/2318 34006KT P6SM OVC025
     FM222100 36007KT P6SM OVC040
     FM230400 01008KT 5SM -RA BR OVC020
     FM230900 32012KT 5SM -RA BR OVC008=

USA.gov is the U.S. government's official web portal to all federal, state and local government web resources and services.